< < Back
Terminal Aerodrome Forecast


Current Version              Previous Versions:   1  2  3  4  5  6  7  8  9  

Terminal Aerodrome Forecast

726
FTUS44 KMRX 162321
TAFCHA
TAF
KCHA 162321Z 1700/1724 10003KT P6SM SKC
     FM171400 13009KT P6SM SCT250=

Latest METAR

833
SAUS80 KWBC 171600 RRA
MTRCHA
METAR KCHA 171553Z 13013KT 10SM BKN250 14/M02 A3043 RMK AO2 SLP302
T01441017


USA.gov is the U.S. government's official web portal to all federal, state and local government web resources and services.